Barhom II — 5IM534 — position and weather

sailwx.info

Track history (hours):
 
Tides and Currents Weather Stations Pressure Air Temp Water Temp Dewpoint Dewpoint Depression Visibility Wind Speed Wind Dir Waves Ship Positions

Barhom II

Last reported at 2014-Oct-29 23:27 UTC. Time now 2014-Nov-01 01:10 UTC.
Position N 37°26' E 000°40'.

Length 83 m; draft 4.5 m.

Type: Cargo ship. MMSI: 677043400.

Date/timePositionNaut miles runAvg speedWind from/ knotsBaromVisibWave heightAir tempDewpointWater temp
2014-Oct-29 23:27N 37°26' E 000°40'2110.0
2014-Oct-29 21:20N 37°27' E 000°13'2910.0
2014-Oct-29 18:26N 37°29' W 000°23'19 9.6
2014-Oct-29 16:29N 37°31' W 000°47'  
2014-Oct-26 19:32N 37°31' W 000°54'1111.2
2014-Oct-26 18:32N 37°30' W 000°40'1111.3
2014-Oct-26 17:33N 37°29' W 000°26'1111.3
2014-Oct-26 16:33N 37°28' W 000°12'1111.1
2014-Oct-26 15:33N 37°28' E 000°02'1111.1
2014-Oct-26 14:33N 37°28' E 000°16'1110.8
2014-Oct-26 13:33N 37°28' E 000°30'1110.7
2014-Oct-26 12:33N 37°28' E 000°43'1110.9
2014-Oct-26 11:33N 37°28' E 000°57'1110.9
2014-Oct-26 10:31N 37°28' E 001°11'8510.5
2014-Oct-26 02:24N 37°30' E 002°58'1110.3
2014-Oct-26 01:20N 37°30' E 003°12'  
Track history (hours):
 
Tides and Currents Weather Stations Pressure Air Temp Water Temp Dewpoint Dewpoint Depression Visibility Wind Speed Wind Dir Waves Ship Positions

Barhom II

Last reported at 2014-Oct-29 23:27 UTC. Time now 2014-Nov-01 01:10 UTC.
Position N 37°26' E 000°40'.

Length 83 m; draft 4.5 m.

Type: Cargo ship. MMSI: 677043400.

Date/timePositionNaut miles runAvg speedWind from/ knotsBaromVisibWave heightAir tempDewpointWater temp
2014-Oct-29 23:27N 37°26' E 000°40'2110.0
2014-Oct-29 21:20N 37°27' E 000°13'2910.0
2014-Oct-29 18:26N 37°29' W 000°23'19 9.6
2014-Oct-29 16:29N 37°31' W 000°47'  
2014-Oct-26 19:32N 37°31' W 000°54'1111.2
2014-Oct-26 18:32N 37°30' W 000°40'1111.3
2014-Oct-26 17:33N 37°29' W 000°26'1111.3
2014-Oct-26 16:33N 37°28' W 000°12'1111.1
2014-Oct-26 15:33N 37°28' E 000°02'1111.1
2014-Oct-26 14:33N 37°28' E 000°16'1110.8
2014-Oct-26 13:33N 37°28' E 000°30'1110.7
2014-Oct-26 12:33N 37°28' E 000°43'1110.9
2014-Oct-26 11:33N 37°28' E 000°57'1110.9
2014-Oct-26 10:31N 37°28' E 001°11'8510.5
2014-Oct-26 02:24N 37°30' E 002°58'1110.3
2014-Oct-26 01:20N 37°30' E 003°12'  

Dump ship's entire track history